Time;durP1;ratioP1;P1;durP2;ratioP2;P2;SDS_P1;SDS_P2;PMS_P1;PMS_P2;Temp;Humidity;BMP_temperature;BMP_pressure;BME280_temperature;BME280_humidity;BME280_pressure;Samples;Min_cycle;Max_cycle;Signal;HPM_P1;HPM_P2
2022/03/13 00:00:01;;;;;;;1999.90;999.90;;;;;;;-1.02;28.55;101703.00;5010090;27;98406;-71
2022/03/13 00:02:40;;;;;;;1999.90;999.90;;;;;;;-1.04;28.22;101700.25;5010295;27;98120;-72
2022/03/13 00:05:11;;;;;;;1999.90;999.90;;;;;;;-1.04;28.33;101707.19;4995474;28;99429;-71
2022/03/13 00:07:41;;;;;;;1999.90;999.90;;;;;;;-1.04;28.31;101699.34;5010355;27;97790;-72
2022/03/13 00:10:14;;;;;;;1999.90;999.90;;;;;;;-1.07;28.67;101700.00;5016707;27;97518;-72
2022/03/13 00:12:42;;;;;;;1999.90;999.90;;;;;;;-1.09;28.11;101696.38;5021078;27;97665;-71
2022/03/13 00:15:12;;;;;;;1999.90;999.90;;;;;;;-1.10;28.58;101693.59;5016033;28;97593;-72
2022/03/13 00:17:40;;;;;;;1999.90;999.90;;;;;;;-1.13;28.50;101694.28;5015261;28;98050;-72
2022/03/13 00:20:11;;;;;;;1999.90;999.90;;;;;;;-1.15;28.38;101687.09;5016049;27;96922;-72
2022/03/13 00:22:41;;;;;;;1999.90;999.90;;;;;;;-1.16;28.34;101688.78;4993880;28;98452;-72
2022/03/13 00:25:10;;;;;;;1999.90;999.90;;;;;;;-1.17;28.24;101688.66;4998622;27;98465;-72
2022/03/13 00:27:39;;;;;;;1999.90;999.90;;;;;;;-1.20;28.65;101685.81;4997927;27;97234;-71
2022/03/13 00:30:08;;;;;;;1999.90;999.90;;;;;;;-1.22;28.61;101684.78;5017384;27;97062;-72
2022/03/13 00:32:38;;;;;;;1999.90;999.90;;;;;;;-1.25;28.78;101687.16;5013396;27;100886;-71
2022/03/13 00:35:06;;;;;;;1999.90;999.90;;;;;;;-1.30;28.72;101686.75;5016399;27;97790;-70
2022/03/13 00:37:34;;;;;;;1999.90;999.90;;;;;;;-1.35;28.92;101684.53;5001490;28;97600;-72
2022/03/13 00:40:04;;;;;;;1999.90;999.90;;;;;;;-1.39;28.79;101672.03;5021076;27;97997;-71
2022/03/13 00:42:31;;;;;;;1999.90;999.90;;;;;;;-1.46;28.84;101673.22;5020064;27;99614;-72
2022/03/13 00:44:59;;;;;;;1999.90;999.90;;;;;;;-1.49;28.66;101672.06;5002099;28;101127;-71
2022/03/13 00:47:27;;;;;;;1999.90;999.90;;;;;;;-1.52;29.13;101669.22;5011372;27;97144;-72
2022/03/13 00:49:54;;;;;;;1999.90;999.90;;;;;;;-1.53;28.88;101668.28;5014528;28;96942;-71
2022/03/13 00:52:22;;;;;;;1999.90;999.90;;;;;;;-1.55;28.71;101664.63;5021377;28;98820;-71
2022/03/13 00:54:50;;;;;;;1999.90;999.90;;;;;;;-1.55;29.09;101674.16;5018958;28;98722;-72
2022/03/13 00:57:19;;;;;;;1999.90;999.90;;;;;;;-1.57;29.19;101662.66;5016481;27;96963;-72
2022/03/13 00:59:47;;;;;;;1999.90;999.90;;;;;;;-1.59;29.32;101670.38;5016984;27;97611;-71
2022/03/13 01:02:15;;;;;;;1999.90;999.90;;;;;;;-1.61;28.62;101671.94;4997053;28;99274;-72
2022/03/13 01:04:50;;;;;;;1999.90;999.90;;;;;;;-1.65;28.88;101664.63;5015316;27;99479;-72
2022/03/13 01:07:18;;;;;;;1999.90;999.90;;;;;;;-1.67;28.94;101663.63;4986983;28;97659;-72
2022/03/13 01:09:46;;;;;;;1999.90;999.90;;;;;;;-1.70;28.93;101657.22;5017405;27;96747;-72
2022/03/13 01:12:13;;;;;;;1999.90;999.90;;;;;;;-1.73;28.81;101660.50;5009042;27;100796;-72
2022/03/13 01:14:42;;;;;;;1999.90;999.90;;;;;;;-1.76;29.59;101657.59;4985534;28;101096;-71
2022/03/13 01:17:10;;;;;;;1999.90;999.90;;;;;;;-1.79;28.75;101664.25;5013704;27;96889;-72
2022/03/13 01:19:38;;;;;;;1999.90;999.90;;;;;;;-1.81;29.74;101664.13;5010101;27;98153;-72
2022/03/13 01:22:06;;;;;;;1999.90;999.90;;;;;;;-1.83;29.77;101659.59;5019422;27;97578;-71
2022/03/13 01:24:43;;;;;;;1999.90;999.90;;;;;;;-1.85;28.95;101659.44;5000240;28;100810;-71
2022/03/13 01:27:12;;;;;;;1999.90;999.90;;;;;;;-1.85;29.22;101659.44;4992973;28;97093;-71
2022/03/13 01:29:40;;;;;;;1999.90;999.90;;;;;;;-1.85;29.68;101660.38;5004157;28;99514;-71
2022/03/13 01:32:12;;;;;;;1999.90;999.90;;;;;;;-1.89;28.96;101650.44;5014327;28;98515;-71
2022/03/13 01:34:51;;;;;;;1999.90;999.90;;;;;;;-1.87;29.20;101658.44;5011894;27;99276;-71
2022/03/13 01:37:31;;;;;;;1999.90;999.90;;;;;;;-1.94;28.97;101656.97;4992970;28;96773;-71
2022/03/13 01:40:01;;;;;;;1999.90;999.90;;;;;;;-1.94;28.86;101656.06;5018490;28;97823;-71
2022/03/13 01:42:28;;;;;;;1999.90;999.90;;;;;;;-1.97;29.00;101654.13;5018596;27;98839;-71
2022/03/13 01:44:56;;;;;;;1999.90;999.90;;;;;;;-1.98;29.45;101657.50;5013447;27;99707;-71
2022/03/13 01:47:26;;;;;;;1999.90;999.90;;;;;;;-2.01;29.26;101649.44;5013125;27;98716;-72
2022/03/13 01:49:54;;;;;;;1999.90;999.90;;;;;;;-2.03;29.41;101647.47;5011466;27;98008;-70
2022/03/13 01:52:26;;;;;;;1999.90;999.90;;;;;;;-2.07;29.62;101656.72;5017503;27;99698;-72
2022/03/13 01:54:55;;;;;;;1999.90;999.90;;;;;;;-2.10;29.20;101653.84;5018354;27;99082;-70
2022/03/13 01:57:23;;;;;;;1999.90;999.90;;;;;;;-2.14;29.32;101656.97;5001992;28;97198;-71
2022/03/13 01:59:52;;;;;;;1999.90;999.90;;;;;;;-2.15;29.93;101660.38;4995371;28;96762;-71
2022/03/13 02:02:24;;;;;;;1999.90;999.90;;;;;;;-2.20;29.96;101658.13;5019217;28;98771;-71
2022/03/13 02:04:55;;;;;;;1999.90;999.90;;;;;;;-2.24;29.43;101651.75;5011759;27;101368;-72
2022/03/13 02:07:23;;;;;;;1999.90;999.90;;;;;;;-2.28;29.81;101647.03;4998841;28;97217;-71
2022/03/13 02:09:51;;;;;;;1999.90;999.90;;;;;;;-2.32;30.21;101654.44;5021179;27;96869;-71
2022/03/13 02:12:20;;;;;;;1999.90;999.90;;;;;;;-2.36;29.64;101649.78;4993234;27;100448;-71
2022/03/13 02:14:50;;;;;;;1999.90;999.90;;;;;;;-2.39;29.54;101650.41;5020036;28;97723;-72
2022/03/13 02:17:27;;;;;;;1999.90;999.90;;;;;;;-2.44;30.02;101638.69;4999314;28;97512;-71
2022/03/13 02:19:56;;;;;;;1999.90;999.90;;;;;;;-2.44;29.69;101638.69;5010673;28;97760;-72
2022/03/13 02:22:24;;;;;;;1999.90;999.90;;;;;;;-2.46;29.80;101629.81;5019057;27;97677;-72
2022/03/13 02:24:53;;;;;;;1999.90;999.90;;;;;;;-2.50;30.11;101638.16;5015051;28;98189;-72
2022/03/13 02:27:23;;;;;;;1999.90;999.90;;;;;;;-2.52;29.59;101637.09;5019088;27;97219;-72
2022/03/13 02:29:55;;;;;;;1999.90;999.90;;;;;;;-2.57;30.15;101628.00;5017861;28;96751;-71
2022/03/13 02:32:22;;;;;;;1999.90;999.90;;;;;;;-2.59;30.16;101629.53;4965458;28;98538;-72
2022/03/13 02:34:50;;;;;;;1999.90;999.90;;;;;;;-2.62;30.37;101625.75;5012096;27;99959;-72
2022/03/13 02:37:31;;;;;;;1999.90;999.90;;;;;;;-2.68;29.81;101622.63;5007127;27;97476;-72
2022/03/13 02:40:00;;;;;;;1999.90;999.90;;;;;;;-2.69;29.79;101624.28;5016681;28;96969;-72
2022/03/13 02:42:28;;;;;;;1999.90;999.90;;;;;;;-2.72;30.16;101623.13;4999001;28;99558;-70
2022/03/13 02:44:55;;;;;;;1999.90;999.90;;;;;;;-2.74;29.86;101620.38;5001106;28;99248;-71
2022/03/13 02:47:23;;;;;;;1999.90;999.90;;;;;;;-2.75;30.12;101618.59;4998788;28;99373;-71
2022/03/13 02:49:51;;;;;;;1999.90;999.90;;;;;;;-2.80;29.57;101614.63;5008729;27;97971;-71
2022/03/13 02:52:18;;;;;;;1999.90;999.90;;;;;;;-2.82;29.81;101617.91;5005313;27;98085;-72
2022/03/13 02:54:47;;;;;;;1999.90;999.90;;;;;;;-2.85;29.99;101613.34;4996503;28;98158;-72
2022/03/13 02:57:16;;;;;;;1999.90;999.90;;;;;;;-2.89;29.82;101603.41;5016041;27;97270;-71
2022/03/13 02:59:44;;;;;;;1999.90;999.90;;;;;;;-2.91;30.21;101607.63;4996755;28;98088;-71
2022/03/13 03:02:13;;;;;;;1999.90;999.90;;;;;;;-2.95;29.65;101611.59;4998477;28;99344;-71
2022/03/13 03:04:43;;;;;;;1999.90;999.90;;;;;;;-3.00;29.98;101601.56;5018343;27;99910;-71
2022/03/13 03:07:11;;;;;;;1999.90;999.90;;;;;;;-3.02;30.20;101614.44;4996939;28;97717;-71
2022/03/13 03:09:39;;;;;;;1999.90;999.90;;;;;;;-3.08;29.95;101613.94;5009624;27;97794;-72
2022/03/13 03:12:08;;;;;;;1999.90;999.90;;;;;;;-3.12;30.09;101616.13;5012371;27;99687;-71
2022/03/13 03:14:37;;;;;;;1999.90;999.90;;;;;;;-3.16;30.11;101616.63;4999482;28;100613;-72
2022/03/13 03:17:05;;;;;;;1999.90;999.90;;;;;;;-3.18;30.03;101610.34;5013856;28;97825;-72
2022/03/13 03:19:33;;;;;;;1999.90;999.90;;;;;;;-3.21;30.11;101597.09;5002294;28;98057;-72
2022/03/13 03:22:01;;;;;;;1999.90;999.90;;;;;;;-3.20;30.57;101604.13;5008662;27;100457;-72
2022/03/13 03:24:29;;;;;;;1999.90;999.90;;;;;;;-3.23;30.21;101602.16;5016057;27;98893;-72
2022/03/13 03:26:57;;;;;;;1999.90;999.90;;;;;;;-3.25;30.44;101610.59;5016028;28;97185;-72
2022/03/13 03:29:25;;;;;;;1999.90;999.90;;;;;;;-3.27;30.46;101605.25;4997804;28;97450;-72
2022/03/13 03:31:55;;;;;;;1999.90;999.90;;;;;;;-3.27;30.46;101606.94;5016227;27;98289;-72
2022/03/13 03:34:25;;;;;;;1999.90;999.90;;;;;;;-3.29;30.26;101613.69;5007034;27;99335;-71
2022/03/13 03:36:54;;;;;;;1999.90;999.90;;;;;;;-3.32;30.18;101609.16;4993918;28;97705;-71
2022/03/13 03:39:23;;;;;;;1999.90;999.90;;;;;;;-3.33;30.39;101607.31;5017337;27;98472;-71
2022/03/13 03:41:52;;;;;;;1999.90;999.90;;;;;;;-3.32;30.37;101605.63;4996885;28;98541;-71
2022/03/13 03:44:21;;;;;;;1999.90;999.90;;;;;;;-3.33;30.00;101606.41;5012290;27;97744;-72
2022/03/13 03:46:50;;;;;;;1999.90;999.90;;;;;;;-3.34;30.34;101607.19;4994881;28;98653;-70
2022/03/13 03:49:19;;;;;;;1999.90;999.90;;;;;;;-3.35;30.39;101608.84;5012358;28;97197;-70
2022/03/13 03:51:47;;;;;;;1999.90;999.90;;;;;;;-3.37;30.25;101619.94;5011793;27;97761;-70
2022/03/13 03:54:15;;;;;;;1999.90;999.90;;;;;;;-3.38;30.36;101618.06;5013896;28;97499;-70
2022/03/13 03:56:43;;;;;;;1999.90;999.90;;;;;;;-3.37;30.41;101622.53;5018312;27;96772;-70
2022/03/13 03:59:11;;;;;;;1999.90;999.90;;;;;;;-3.36;30.19;101619.13;5017614;27;96894;-71
2022/03/13 04:01:40;;;;;;;1999.90;999.90;;;;;;;-3.37;30.07;101617.31;5017845;27;97888;-70
2022/03/13 04:04:15;;;;;;;1999.90;999.90;;;;;;;-3.37;30.22;101619.94;5019494;27;97095;-71
2022/03/13 04:06:44;;;;;;;1999.90;999.90;;;;;;;-3.38;30.06;101619.00;5023892;27;96949;-70
2022/03/13 04:09:12;;;;;;;1999.90;999.90;;;;;;;-3.38;30.38;101612.88;5006283;28;96862;-70
2022/03/13 04:11:41;;;;;;;1999.90;999.90;;;;;;;-3.39;30.73;101622.41;5019233;28;97035;-70
2022/03/13 04:14:09;;;;;;;1999.90;999.90;;;;;;;-3.40;30.13;101624.88;5016839;27;98170;-70
2022/03/13 04:16:37;;;;;;;1999.90;999.90;;;;;;;-3.43;30.59;101620.28;4992228;28;98461;-70
2022/03/13 04:19:05;;;;;;;1999.90;999.90;;;;;;;-3.43;30.43;101620.28;5002141;27;97000;-70
2022/03/13 04:21:34;;;;;;;1999.90;999.90;;;;;;;-3.43;30.14;101621.97;5011757;27;99345;-71
2022/03/13 04:24:04;;;;;;;1999.90;999.90;;;;;;;-3.47;30.43;101623.38;5000893;28;101391;-70
2022/03/13 04:26:31;;;;;;;1999.90;999.90;;;;;;;-3.52;30.53;101619.47;5011411;27;97186;-70
2022/03/13 04:28:59;;;;;;;1999.90;999.90;;;;;;;-3.55;30.40;101623.47;5013232;27;97552;-71
2022/03/13 04:31:27;;;;;;;1999.90;999.90;;;;;;;-3.57;30.58;101619.81;5009731;27;100010;-70
2022/03/13 04:33:54;;;;;;;1999.90;999.90;;;;;;;-3.61;30.66;101623.84;4997258;28;98442;-69
2022/03/13 04:36:22;;;;;;;1999.90;999.90;;;;;;;-3.64;30.85;101620.03;5005237;28;96893;-69
2022/03/13 04:38:50;;;;;;;1999.90;999.90;;;;;;;-3.68;30.72;101625.75;5013799;28;96852;-69
2022/03/13 04:41:20;;;;;;;1999.90;999.90;;;;;;;-3.71;30.91;101623.75;5022470;28;96987;-69
2022/03/13 04:43:48;;;;;;;1999.90;999.90;;;;;;;-3.74;30.67;101620.88;5014471;27;99466;-70
2022/03/13 04:46:16;;;;;;;1999.90;999.90;;;;;;;-3.77;30.80;101623.22;5016536;28;96947;-70
2022/03/13 04:48:44;;;;;;;1999.90;999.90;;;;;;;-3.79;30.84;101627.38;5021132;27;97844;-70
2022/03/13 04:51:12;;;;;;;1999.90;999.90;;;;;;;-3.83;31.10;101625.25;4993845;28;99260;-70
2022/03/13 04:53:40;;;;;;;1999.90;999.90;;;;;;;-3.86;30.81;101623.28;5020024;27;97672;-70
2022/03/13 04:56:08;;;;;;;1999.90;999.90;;;;;;;-3.87;30.82;101629.25;5018201;27;97804;-70
2022/03/13 04:58:37;;;;;;;1999.90;999.90;;;;;;;-3.89;30.72;101625.59;5013856;28;96939;-70
2022/03/13 05:01:04;;;;;;;1999.90;999.90;;;;;;;-3.90;30.87;101634.19;5018570;27;97952;-70
2022/03/13 05:03:33;;;;;;;1999.90;999.90;;;;;;;-3.91;30.97;101634.94;5017042;27;100280;-70
2022/03/13 05:06:05;;;;;;;1999.90;999.90;;;;;;;-3.95;31.00;101627.63;5007045;27;96862;-70
2022/03/13 05:08:33;;;;;;;1999.90;999.90;;;;;;;-3.96;30.94;101632.69;5015590;27;97070;-70
2022/03/13 05:11:03;;;;;;;1999.90;999.90;;;;;;;-3.99;31.16;101627.22;5031038;27;98051;-70
2022/03/13 05:13:30;;;;;;;1999.90;999.90;;;;;;;-4.02;31.09;101633.03;5003900;28;101880;-70
2022/03/13 05:15:59;;;;;;;1999.90;999.90;;;;;;;-4.05;31.13;101642.25;5019928;27;97808;-71
2022/03/13 05:18:29;;;;;;;1999.90;999.90;;;;;;;-4.08;31.19;101645.47;4999204;28;99512;-70
2022/03/13 05:20:57;;;;;;;1999.90;999.90;;;;;;;-4.09;30.88;101645.31;5020837;28;99194;-70
2022/03/13 05:23:25;;;;;;;1999.90;999.90;;;;;;;-4.13;31.23;101641.53;5019283;27;97890;-70
2022/03/13 05:25:53;;;;;;;1999.90;999.90;;;;;;;-4.15;31.35;101640.47;5017508;27;97130;-70
2022/03/13 05:28:20;;;;;;;1999.90;999.90;;;;;;;-4.17;31.27;101649.81;5020942;27;97060;-70
2022/03/13 05:30:48;;;;;;;1999.90;999.90;;;;;;;-4.19;31.40;101653.94;4979955;28;101181;-70
2022/03/13 05:33:17;;;;;;;1999.90;999.90;;;;;;;-4.20;31.57;101662.53;5013542;27;98746;-70
2022/03/13 05:35:45;;;;;;;1999.90;999.90;;;;;;;-4.22;31.40;101664.06;5008402;27;98147;-70
2022/03/13 05:38:13;;;;;;;1999.90;999.90;;;;;;;-4.23;31.47;101659.66;4999337;28;97269;-70
2022/03/13 05:40:41;;;;;;;1999.90;999.90;;;;;;;-4.24;31.38;101657.81;5014947;28;97700;-71
2022/03/13 05:43:11;;;;;;;1999.90;999.90;;;;;;;-4.25;31.42;101655.06;4999587;28;100267;-71
2022/03/13 05:45:41;;;;;;;1999.90;999.90;;;;;;;-4.26;31.18;101661.94;5013558;27;97129;-71
2022/03/13 05:48:11;;;;;;;1999.90;999.90;;;;;;;-4.27;31.55;101659.22;5016305;28;97642;-71
2022/03/13 05:50:40;;;;;;;1999.90;999.90;;;;;;;-4.29;31.32;101669.47;4992442;28;99349;-71
2022/03/13 05:53:08;;;;;;;1999.90;999.90;;;;;;;-4.31;31.30;101662.28;5003768;27;98541;-70
2022/03/13 05:55:35;;;;;;;1999.90;999.90;;;;;;;-4.33;31.22;101667.34;5020113;27;98046;-70
2022/03/13 05:58:03;;;;;;;1999.90;999.90;;;;;;;-4.36;31.17;101664.47;5020800;27;96806;-72
2022/03/13 06:00:32;;;;;;;1999.90;999.90;;;;;;;-4.35;31.53;101665.38;5018956;27;97916;-71
2022/03/13 06:03:01;;;;;;;1999.90;999.90;;;;;;;-4.34;31.10;101665.53;4997486;28;99356;-70
2022/03/13 06:05:32;;;;;;;1999.90;999.90;;;;;;;-4.33;31.30;101666.41;5011429;27;97151;-71
2022/03/13 06:08:01;;;;;;;1999.90;999.90;;;;;;;-4.34;31.18;101668.13;4991657;28;97180;-69
2022/03/13 06:10:29;;;;;;;1999.90;999.90;;;;;;;-4.32;31.53;101665.66;5014192;28;98988;-70
2022/03/13 06:12:57;;;;;;;1999.90;999.90;;;;;;;-4.33;31.34;101664.75;5018202;27;97833;-72
2022/03/13 06:15:25;;;;;;;1999.90;999.90;;;;;;;-4.30;31.33;101667.66;5015785;27;97557;-70
2022/03/13 06:17:53;;;;;;;1999.90;999.90;;;;;;;-4.28;31.63;101667.78;5009344;27;97238;-71
2022/03/13 06:20:21;;;;;;;1999.90;999.90;;;;;;;-4.25;31.28;101663.78;4997874;28;99319;-71
2022/03/13 06:22:49;;;;;;;1999.90;999.90;;;;;;;-4.23;31.17;101667.44;5012140;27;100499;-72
2022/03/13 06:25:18;;;;;;;1999.90;999.90;;;;;;;-4.22;31.29;101663.13;5007521;27;96775;-72
2022/03/13 06:27:46;;;;;;;1999.90;999.90;;;;;;;-4.23;31.53;101664.84;5010011;27;99033;-72
2022/03/13 06:30:16;;;;;;;1999.90;999.90;;;;;;;-4.20;31.09;101661.59;5015694;28;98622;-72
2022/03/13 06:32:46;;;;;;;1999.90;999.90;;;;;;;-4.19;31.13;101661.75;5001324;27;98519;-71
2022/03/13 06:35:15;;;;;;;1999.90;999.90;;;;;;;-4.17;31.28;101668.00;5022263;27;96843;-71
2022/03/13 06:37:43;;;;;;;1999.90;999.90;;;;;;;-4.14;31.35;101662.19;5013057;28;97146;-72
2022/03/13 06:40:17;;;;;;;1999.90;999.90;;;;;;;-4.13;31.23;101662.31;5019801;27;97783;-72
2022/03/13 06:42:49;;;;;;;1999.90;999.90;;;;;;;-4.13;31.31;101659.72;4995762;28;99443;-71
2022/03/13 06:45:18;;;;;;;1999.90;999.90;;;;;;;-4.09;31.30;101667.03;5012885;27;96949;-72
2022/03/13 06:47:49;;;;;;;1999.90;999.90;;;;;;;-4.06;31.43;101661.22;5007739;27;97510;-71
2022/03/13 06:50:18;;;;;;;1999.90;999.90;;;;;;;-4.02;31.28;101656.44;5009545;27;98898;-72
2022/03/13 06:52:49;;;;;;;1999.90;999.90;;;;;;;-3.99;31.12;101664.50;5005635;28;97606;-72
2022/03/13 06:55:20;;;;;;;1999.90;999.90;;;;;;;-3.94;31.23;101657.16;5017428;27;97239;-71
2022/03/13 06:57:50;;;;;;;1999.90;999.90;;;;;;;-3.88;31.29;101668.13;5017038;27;97307;-72
2022/03/13 07:00:19;;;;;;;1999.90;999.90;;;;;;;-3.82;31.21;101663.47;5003871;27;100112;-71
2022/03/13 07:02:48;;;;;;;1999.90;999.90;;;;;;;-3.76;30.92;101657.91;5016902;27;98781;-71
2022/03/13 07:05:19;;;;;;;1999.90;999.90;;;;;;;-3.70;31.14;101669.81;5009995;28;96837;-71
2022/03/13 07:07:47;;;;;;;1999.90;999.90;;;;;;;-3.63;31.32;101668.66;5007678;28;96887;-72
2022/03/13 07:10:14;;;;;;;1999.90;999.90;;;;;;;-3.59;31.02;101666.50;4984127;28;99348;-72
2022/03/13 07:12:44;;;;;;;1999.90;999.90;;;;;;;-3.52;31.01;101674.09;5010303;27;98936;-71
2022/03/13 07:15:14;;;;;;;1999.90;999.90;;;;;;;-3.48;30.94;101673.59;5007500;28;98949;-71
2022/03/13 07:17:43;;;;;;;1999.90;999.90;;;;;;;-3.41;31.18;101675.06;5018501;27;97177;-71
2022/03/13 07:20:11;;;;;;;1999.90;999.90;;;;;;;-3.37;30.94;101672.88;5016020;28;97727;-71
2022/03/13 07:22:40;;;;;;;1999.90;999.90;;;;;;;-3.31;30.89;101672.53;5010501;27;97650;-71
2022/03/13 07:25:08;;;;;;;1999.90;999.90;;;;;;;-3.25;31.06;101665.25;4998052;28;97053;-71
2022/03/13 07:27:36;;;;;;;1999.90;999.90;;;;;;;-3.20;31.08;101664.00;4975383;28;96949;-71
2022/03/13 07:30:05;;;;;;;1999.90;999.90;;;;;;;-3.12;30.95;101662.97;5014687;28;97802;-71
2022/03/13 07:32:34;;;;;;;1999.90;999.90;;;;;;;-3.05;30.67;101671.47;5008295;27;98019;-71
2022/03/13 07:35:02;;;;;;;1999.90;999.90;;;;;;;-2.98;30.66;101668.63;5014595;27;97670;-71
2022/03/13 07:37:30;;;;;;;1999.90;999.90;;;;;;;-2.91;30.28;101670.09;5014927;28;99025;-70
2022/03/13 07:39:59;;;;;;;1999.90;999.90;;;;;;;-2.84;30.71;101662.94;5020406;28;97750;-70
2022/03/13 07:42:26;;;;;;;1999.90;999.90;;;;;;;-2.77;30.81;101669.63;5017796;27;97532;-72
2022/03/13 07:44:54;;;;;;;1999.90;999.90;;;;;;;-2.68;30.34;101665.22;4991074;28;97855;-72
2022/03/13 07:47:22;;;;;;;1999.90;999.90;;;;;;;-2.61;30.52;101661.44;4999045;27;98101;-71
2022/03/13 07:49:51;;;;;;;1999.90;999.90;;;;;;;-2.55;30.21;101660.31;5015289;27;99048;-71
2022/03/13 07:52:19;;;;;;;1999.90;999.90;;;;;;;-2.47;30.20;101654.03;5014543;27;97600;-71
2022/03/13 07:54:46;;;;;;;1999.90;999.90;;;;;;;-2.39;29.99;101660.84;5005921;27;98386;-71
2022/03/13 07:57:14;;;;;;;1999.90;999.90;;;;;;;-2.32;30.16;101644.94;5001306;27;97737;-70
2022/03/13 07:59:42;;;;;;;1999.90;999.90;;;;;;;-2.23;30.07;101655.25;5015290;27;98981;-70
2022/03/13 08:02:10;;;;;;;1999.90;999.90;;;;;;;-2.15;29.56;101654.25;5005661;27;98236;-71
2022/03/13 08:04:38;;;;;;;1999.90;999.90;;;;;;;-2.08;30.43;101652.31;5014156;27;97268;-71
2022/03/13 08:07:07;;;;;;;1999.90;999.90;;;;;;;-1.99;30.04;101641.72;4996779;27;98082;-71
2022/03/13 08:09:35;;;;;;;1999.90;999.90;;;;;;;-1.92;29.54;101641.47;5017196;27;97776;-71
2022/03/13 08:12:03;;;;;;;1999.90;999.90;;;;;;;-1.86;29.45;101632.47;5019904;27;97310;-71
2022/03/13 08:14:31;;;;;;;1999.90;999.90;;;;;;;-1.77;29.40;101631.41;5019594;27;96777;-71
2022/03/13 08:16:59;;;;;;;1999.90;999.90;;;;;;;-1.68;29.60;101626.94;4989768;28;99357;-71
2022/03/13 08:19:27;;;;;;;1999.90;999.90;;;;;;;-1.60;29.77;101625.91;5020616;27;99380;-71
2022/03/13 08:21:55;;;;;;;1999.90;999.90;;;;;;;-1.51;29.74;101631.88;5019990;27;97687;-70
2022/03/13 08:24:24;;;;;;;1999.90;999.90;;;;;;;-1.45;29.71;101630.66;5013369;27;96778;-71
2022/03/13 08:26:52;;;;;;;1999.90;999.90;;;;;;;-1.36;29.47;101627.91;5003147;28;97438;-71
2022/03/13 08:29:20;;;;;;;1999.90;999.90;;;;;;;-1.29;29.33;101622.41;4984649;28;101675;-70
2022/03/13 08:31:48;;;;;;;1999.90;999.90;;;;;;;-1.20;29.62;101620.53;5017820;27;99289;-70
2022/03/13 08:34:16;;;;;;;1999.90;999.90;;;;;;;-1.13;28.89;101620.25;5012202;27;96901;-70
2022/03/13 08:36:46;;;;;;;1999.90;999.90;;;;;;;-1.07;28.79;101620.75;5011797;27;97752;-70
2022/03/13 08:39:14;;;;;;;1999.90;999.90;;;;;;;-1.00;29.32;101620.44;4966901;27;101089;-71
2022/03/13 08:41:43;;;;;;;1999.90;999.90;;;;;;;-0.93;28.75;101620.16;5000302;28;99190;-71
2022/03/13 08:44:11;;;;;;;1999.90;999.90;;;;;;;-0.85;29.05;101608.63;4994100;28;97230;-70
2022/03/13 08:46:39;;;;;;;1999.90;999.90;;;;;;;-0.78;28.54;101606.59;5014821;27;96966;-71
2022/03/13 08:49:08;;;;;;;1999.90;999.90;;;;;;;-0.71;28.56;101601.84;5006574;27;98203;-70
2022/03/13 08:51:35;;;;;;;1999.90;999.90;;;;;;;-0.64;28.43;101604.16;5015049;27;97633;-70
2022/03/13 08:54:03;;;;;;;1999.90;999.90;;;;;;;-0.55;28.77;101605.78;4992654;28;98034;-70
2022/03/13 08:56:31;;;;;;;1999.90;999.90;;;;;;;-0.48;28.45;101595.03;4984148;27;98885;-70
2022/03/13 08:59:00;;;;;;;1999.90;999.90;;;;;;;-0.41;28.71;101599.06;4974236;28;98821;-71
2022/03/13 09:01:28;;;;;;;1999.90;999.90;;;;;;;-0.35;28.47;101589.97;5016033;27;98413;-71
2022/03/13 09:03:57;;;;;;;1999.90;999.90;;;;;;;-0.29;28.55;101595.69;5010991;27;97709;-70
2022/03/13 09:06:24;;;;;;;1999.90;999.90;;;;;;;-0.20;28.41;101592.84;5001085;28;96915;-70
2022/03/13 09:08:52;;;;;;;1999.90;999.90;;;;;;;-0.14;28.60;101602.09;4986654;28;98111;-69
2022/03/13 09:11:23;;;;;;;1999.90;999.90;;;;;;;-0.07;28.21;101587.75;5006900;27;97845;-71
2022/03/13 09:13:51;;;;;;;1999.90;999.90;;;;;;;-0.02;28.05;101589.00;5000661;27;96968;-71
2022/03/13 09:16:20;;;;;;;1999.90;999.90;;;;;;;0.08;28.22;101594.16;4998563;28;96980;-72
2022/03/13 09:18:48;;;;;;;1999.90;999.90;;;;;;;0.14;27.95;101587.69;5006205;27;98094;-71
2022/03/13 09:21:16;;;;;;;1999.90;999.90;;;;;;;0.20;27.69;101601.22;4996609;27;100594;-71
2022/03/13 09:23:44;;;;;;;1999.90;999.90;;;;;;;0.28;28.00;101593.06;5018770;27;96986;-72
2022/03/13 09:26:12;;;;;;;1999.90;999.90;;;;;;;0.33;28.07;101592.63;5014986;27;97319;-72
2022/03/13 09:28:40;;;;;;;1999.90;999.90;;;;;;;0.40;27.73;101597.50;5011435;27;100442;-71
2022/03/13 09:31:08;;;;;;;1999.90;999.90;;;;;;;0.47;27.68;101597.16;4999647;27;98914;-71
2022/03/13 09:33:37;;;;;;;1999.90;999.90;;;;;;;0.54;27.44;101596.81;5001339;28;97199;-72
2022/03/13 09:36:05;;;;;;;1999.90;999.90;;;;;;;0.61;27.53;101598.22;4999075;28;97054;-71
2022/03/13 09:38:33;;;;;;;1999.90;999.90;;;;;;;0.67;27.84;101603.88;5014351;27;97636;-70
2022/03/13 09:41:01;;;;;;;1999.90;999.90;;;;;;;0.71;27.57;101605.91;5004441;28;100115;-70
2022/03/13 09:43:29;;;;;;;1999.90;999.90;;;;;;;0.78;27.40;101609.09;5008640;28;97813;-70
2022/03/13 09:45:56;;;;;;;1999.90;999.90;;;;;;;0.84;27.83;101606.03;4993934;28;98278;-71
2022/03/13 09:48:24;;;;;;;1999.90;999.90;;;;;;;0.91;27.87;101605.66;5010435;27;98760;-72
2022/03/13 09:50:54;;;;;;;1999.90;999.90;;;;;;;1.00;27.54;101612.50;4996099;28;100464;-71
2022/03/13 09:53:22;;;;;;;1999.90;999.90;;;;;;;1.07;27.44;101609.50;4996721;27;97698;-71
2022/03/13 09:55:50;;;;;;;1999.90;999.90;;;;;;;1.14;27.59;101614.38;5009708;27;96971;-71
2022/03/13 09:58:19;;;;;;;1999.90;999.90;;;;;;;1.22;27.86;101617.56;5001163;28;97954;-71
2022/03/13 10:00:47;;;;;;;1999.90;999.90;;;;;;;1.29;27.43;101608.44;4992698;28;97086;-71
2022/03/13 10:03:18;;;;;;;1999.90;999.90;;;;;;;1.36;27.48;101610.69;5005923;27;97999;-71
2022/03/13 10:05:49;;;;;;;1999.90;999.90;;;;;;;1.44;27.43;101604.25;5009701;27;97606;-71
2022/03/13 10:08:18;;;;;;;1999.90;999.90;;;;;;;1.51;27.64;101602.19;5004797;27;98464;-71
2022/03/13 10:10:47;;;;;;;1999.90;999.90;;;;;;;1.58;27.46;101599.19;5004504;27;98049;-70
2022/03/13 10:13:16;;;;;;;1999.90;999.90;;;;;;;1.64;27.15;101604.88;5009416;27;97659;-70
2022/03/13 10:15:46;;;;;;;1999.90;999.90;;;;;;;1.71;27.19;101600.94;5006976;27;96827;-71
2022/03/13 10:18:17;;;;;;;1999.90;999.90;;;;;;;1.77;27.20;101588.25;5009972;27;99362;-71
2022/03/13 10:20:45;;;;;;;1999.90;999.90;;;;;;;1.83;26.68;101589.63;5010987;27;97339;-71
2022/03/13 10:23:18;;;;;;;1999.90;999.90;;;;;;;1.89;27.23;101587.38;5011914;27;96860;-70
2022/03/13 10:25:48;;;;;;;1999.90;999.90;;;;;;;1.94;26.66;101580.75;5006719;27;96820;-72
2022/03/13 10:28:19;;;;;;;1999.90;999.90;;;;;;;2.00;26.65;101575.91;5003500;27;98762;-71
2022/03/13 10:30:49;;;;;;;1999.90;999.90;;;;;;;2.08;26.59;101585.22;5026129;27;99904;-72
2022/03/13 10:33:17;;;;;;;1999.90;999.90;;;;;;;2.14;26.50;101583.03;5012648;27;98009;-71
2022/03/13 10:35:46;;;;;;;1999.90;999.90;;;;;;;2.21;26.71;101579.13;5019902;27;97804;-72
2022/03/13 10:38:16;;;;;;;1999.90;999.90;;;;;;;2.29;26.65;101574.38;5001950;27;97815;-72
2022/03/13 10:40:49;;;;;;;1999.90;999.90;;;;;;;2.37;27.08;101575.78;4996999;27;101127;-71
2022/03/13 10:43:23;;;;;;;1999.90;999.90;;;;;;;2.42;26.89;101580.53;5012092;27;96780;-71
2022/03/13 10:45:53;;;;;;;1999.90;999.90;;;;;;;2.49;27.12;101579.22;5014992;27;98183;-71
2022/03/13 10:48:28;;;;;;;1999.90;999.90;;;;;;;2.55;27.04;101577.00;4999415;27;97947;-71
2022/03/13 10:50:57;;;;;;;1999.90;999.90;;;;;;;2.63;26.79;101576.72;4987760;28;99380;-71
2022/03/13 10:53:27;;;;;;;1999.90;999.90;;;;;;;2.71;27.19;101574.59;5006792;27;97781;-71